Airfield :
LOGIN :

Register | Disclaimer

   EN    FR    IT 

 










Legend :    VFR   Marginal VFR   IFR   Intensive IFR   Very Intensive IFR
Visi :
Ceiling :
>= 8 km
>= 3000ft
5 to 8 km
1000 to 3000 ft
1500m to 5 km
500 to 1000 ft
800 to 1500m
200 to 500 ft
< 800m
< 200 ft
Symbols :   Thunderstorms  Fog  Heavy snow  Heavy precipitations  Wind > 20 kt
SIGMETs :     Misc.  Thunderstorms  Icing  Turbulence  Mountain Waves  Volcanic Ashes







- Airport Elevation : 120 ft
- IATA code : MME
- Download approach charts


EGNV - Durham Tees valley

CURRENT METAR :
  • 200820Z 19005KT 9999 SCT013 12/11 Q0998

EXPIRED METARs :
  • 200750Z 16003KT 9999 BKN012 11/10 Q0997
  • 200720Z 13003KT 9999 SCT014 09/08 Q0997
  • 200650Z 17004KT 9999 FEW015 11/10 Q0996
  • 200620Z 18005KT 9999 FEW013 12/10 Q0996
  • 200550Z 14005KT 9999 FEW013 BKN033 12/10 Q0996

TAF TAF EGNV
Valid from the 20 at 09:00 until the 20 at 18:00 UTC


200757Z 2009/2018 VRB05KT 9999 SCT015 BKN025
TEMPO 2009/2011 6000 BKN005
TEMPO 2011/2015 6000 -RA BKN009
ATIS : +44 9012 018 111
No reported NOTAMs for that airfield.
2 SIGMETs reported for the London FIR (EGTT) :
 
Severe turbulence
EGTT SIGMET 03 VALID 200700/201100 EGRR
EGTT LONDON FIR SEV TURB OBS WI N5130 E00200 - N5107 E00200 - N5100 E00128 - N5040 E00128 - N5012 E00017 - N5440 W00420 - N5438 W00126 - N5139 E00207 - N5130 E00200 FL250/370 MOV E 20KT NC=
Severe turbulence
EGTT SIGMET 02 VALID 200730/201130 EGRR
EGTT LONDON FIR SEV TURB FCST S OF LINE N4937 W00800 - N5125 E00200 SFC/FL060 MOV ESE 15KT NC=



MET'MAP, your aeronautical weather chart ! - Copyright ORBIFLY December 2007 - Disclaimer

ORBIFLY MET'MAP TEAM :

Programming & Development : Alexandra Zaïnal
Concept & Development : Baudouin d'Aumeries
Co-Development & Prog : Marc-Olivier Méhu
Technical & hardware support : Manuel Goepfert

Contact : metmap@orbifly.com




SOURCES & CREDITS :

   NOAA